sensor_id;sensor_type;location;lat;lon;timestamp;P1;durP1;ratioP1;P2;durP2;ratioP2
5762;SDS011;2906;53.282;9.508;2022-07-10T00:00:39;5.15;;;0.73;;
5762;SDS011;2906;53.282;9.508;2022-07-10T00:01:41;9.85;;;0.70;;
5762;SDS011;2906;53.282;9.508;2022-07-10T00:02:43;6.78;;;0.70;;
5762;SDS011;2906;53.282;9.508;2022-07-10T00:03:45;7.03;;;0.70;;
5762;SDS011;2906;53.282;9.508;2022-07-10T00:04:49;2.83;;;0.60;;
5762;SDS011;2906;53.282;9.508;2022-07-10T00:05:52;6.78;;;0.73;;
5762;SDS011;2906;53.282;9.508;2022-07-10T00:06:53;2.72;;;0.55;;
5762;SDS011;2906;53.282;9.508;2022-07-10T00:07:58;2.75;;;0.55;;
5762;SDS011;2906;53.282;9.508;2022-07-10T00:08:59;6.47;;;0.70;;
5762;SDS011;2906;53.282;9.508;2022-07-10T00:10:03;14.18;;;0.98;;
5762;SDS011;2906;53.282;9.508;2022-07-10T00:11:05;3.75;;;0.40;;
5762;SDS011;2906;53.282;9.508;2022-07-10T00:12:07;5.43;;;0.90;;
5762;SDS011;2906;53.282;9.508;2022-07-10T00:13:08;8.30;;;0.73;;
5762;SDS011;2906;53.282;9.508;2022-07-10T00:14:10;3.75;;;0.70;;
5762;SDS011;2906;53.282;9.508;2022-07-10T00:15:12;2.83;;;0.68;;
5762;SDS011;2906;53.282;9.508;2022-07-10T00:16:15;2.28;;;0.70;;
5762;SDS011;2906;53.282;9.508;2022-07-10T00:17:16;3.45;;;0.90;;
5762;SDS011;2906;53.282;9.508;2022-07-10T00:18:19;5.47;;;0.80;;
5762;SDS011;2906;53.282;9.508;2022-07-10T00:19:20;7.95;;;1.17;;
5762;SDS011;2906;53.282;9.508;2022-07-10T00:20:22;3.20;;;0.85;;
5762;SDS011;2906;53.282;9.508;2022-07-10T00:21:23;4.50;;;0.70;;
5762;SDS011;2906;53.282;9.508;2022-07-10T00:22:26;3.28;;;0.68;;
5762;SDS011;2906;53.282;9.508;2022-07-10T00:23:27;4.07;;;0.65;;
5762;SDS011;2906;53.282;9.508;2022-07-10T00:24:30;7.32;;;0.70;;
5762;SDS011;2906;53.282;9.508;2022-07-10T00:25:33;4.63;;;0.80;;
5762;SDS011;2906;53.282;9.508;2022-07-10T00:26:35;4.40;;;0.50;;
5762;SDS011;2906;53.282;9.508;2022-07-10T00:27:37;11.38;;;1.20;;
5762;SDS011;2906;53.282;9.508;2022-07-10T00:28:39;10.10;;;0.80;;
5762;SDS011;2906;53.282;9.508;2022-07-10T00:29:40;3.15;;;0.57;;
5762;SDS011;2906;53.282;9.508;2022-07-10T00:30:42;5.20;;;0.77;;
5762;SDS011;2906;53.282;9.508;2022-07-10T00:31:44;6.57;;;0.70;;
5762;SDS011;2906;53.282;9.508;2022-07-10T00:32:46;6.38;;;1.00;;
5762;SDS011;2906;53.282;9.508;2022-07-10T00:33:48;5.82;;;0.70;;
5762;SDS011;2906;53.282;9.508;2022-07-10T00:34:51;5.70;;;0.60;;
5762;SDS011;2906;53.282;9.508;2022-07-10T00:35:53;7.30;;;1.27;;
5762;SDS011;2906;53.282;9.508;2022-07-10T00:36:56;7.95;;;0.82;;
5762;SDS011;2906;53.282;9.508;2022-07-10T00:37:57;8.95;;;0.95;;
5762;SDS011;2906;53.282;9.508;2022-07-10T00:39:00;2.53;;;0.70;;
5762;SDS011;2906;53.282;9.508;2022-07-10T00:40:01;5.00;;;0.70;;
5762;SDS011;2906;53.282;9.508;2022-07-10T00:41:06;3.05;;;0.50;;
5762;SDS011;2906;53.282;9.508;2022-07-10T00:42:08;4.20;;;0.70;;
5762;SDS011;2906;53.282;9.508;2022-07-10T00:43:10;4.57;;;0.75;;
5762;SDS011;2906;53.282;9.508;2022-07-10T00:44:13;3.67;;;0.60;;
5762;SDS011;2906;53.282;9.508;2022-07-10T00:45:14;4.45;;;0.90;;
5762;SDS011;2906;53.282;9.508;2022-07-10T00:46:17;5.68;;;0.75;;
5762;SDS011;2906;53.282;9.508;2022-07-10T00:47:20;3.50;;;0.75;;
5762;SDS011;2906;53.282;9.508;2022-07-10T00:48:22;3.60;;;0.90;;
5762;SDS011;2906;53.282;9.508;2022-07-10T00:49:24;3.75;;;0.63;;
5762;SDS011;2906;53.282;9.508;2022-07-10T00:50:26;7.57;;;1.38;;
5762;SDS011;2906;53.282;9.508;2022-07-10T00:51:29;4.90;;;1.10;;
5762;SDS011;2906;53.282;9.508;2022-07-10T00:52:31;7.20;;;1.80;;
5762;SDS011;2906;53.282;9.508;2022-07-10T00:53:35;6.25;;;0.63;;
5762;SDS011;2906;53.282;9.508;2022-07-10T00:54:37;10.32;;;1.15;;
5762;SDS011;2906;53.282;9.508;2022-07-10T00:55:39;4.30;;;0.63;;
5762;SDS011;2906;53.282;9.508;2022-07-10T00:56:43;2.10;;;0.50;;
5762;SDS011;2906;53.282;9.508;2022-07-10T00:57:45;4.50;;;0.50;;
5762;SDS011;2906;53.282;9.508;2022-07-10T00:58:47;3.55;;;0.65;;
5762;SDS011;2906;53.282;9.508;2022-07-10T00:59:50;4.20;;;0.70;;
5762;SDS011;2906;53.282;9.508;2022-07-10T01:00:52;4.68;;;0.57;;
5762;SDS011;2906;53.282;9.508;2022-07-10T01:01:54;4.13;;;0.70;;
5762;SDS011;2906;53.282;9.508;2022-07-10T01:02:56;2.38;;;0.50;;
5762;SDS011;2906;53.282;9.508;2022-07-10T01:03:58;5.22;;;1.05;;
5762;SDS011;2906;53.282;9.508;2022-07-10T01:04:59;5.53;;;1.00;;
5762;SDS011;2906;53.282;9.508;2022-07-10T01:06:02;6.18;;;0.88;;
5762;SDS011;2906;53.282;9.508;2022-07-10T01:07:04;4.05;;;0.57;;
5762;SDS011;2906;53.282;9.508;2022-07-10T01:08:06;3.60;;;0.60;;
5762;SDS011;2906;53.282;9.508;2022-07-10T01:09:07;3.45;;;0.50;;
5762;SDS011;2906;53.282;9.508;2022-07-10T01:10:10;5.25;;;0.60;;
5762;SDS011;2906;53.282;9.508;2022-07-10T01:11:12;4.05;;;0.60;;
5762;SDS011;2906;53.282;9.508;2022-07-10T01:12:16;3.10;;;0.50;;
5762;SDS011;2906;53.282;9.508;2022-07-10T01:13:18;4.60;;;0.88;;
5762;SDS011;2906;53.282;9.508;2022-07-10T01:14:20;3.30;;;0.65;;
5762;SDS011;2906;53.282;9.508;2022-07-10T01:15:22;8.02;;;0.60;;
5762;SDS011;2906;53.282;9.508;2022-07-10T01:16:24;5.70;;;0.80;;
5762;SDS011;2906;53.282;9.508;2022-07-10T01:17:27;3.42;;;0.52;;
5762;SDS011;2906;53.282;9.508;2022-07-10T01:18:29;5.85;;;0.75;;
5762;SDS011;2906;53.282;9.508;2022-07-10T01:19:31;3.45;;;0.50;;
5762;SDS011;2906;53.282;9.508;2022-07-10T01:20:33;9.07;;;0.88;;
5762;SDS011;2906;53.282;9.508;2022-07-10T01:21:37;6.15;;;0.75;;
5762;SDS011;2906;53.282;9.508;2022-07-10T01:22:38;3.95;;;0.55;;
5762;SDS011;2906;53.282;9.508;2022-07-10T01:23:41;6.78;;;2.15;;
5762;SDS011;2906;53.282;9.508;2022-07-10T01:24:42;3.15;;;0.68;;
5762;SDS011;2906;53.282;9.508;2022-07-10T01:25:44;2.95;;;0.70;;
5762;SDS011;2906;53.282;9.508;2022-07-10T01:26:46;6.35;;;0.70;;
5762;SDS011;2906;53.282;9.508;2022-07-10T01:27:48;5.40;;;0.75;;
5762;SDS011;2906;53.282;9.508;2022-07-10T01:28:50;4.03;;;0.70;;
5762;SDS011;2906;53.282;9.508;2022-07-10T01:29:52;4.65;;;1.13;;
5762;SDS011;2906;53.282;9.508;2022-07-10T01:30:54;4.70;;;0.98;;
5762;SDS011;2906;53.282;9.508;2022-07-10T01:31:57;3.75;;;0.55;;
5762;SDS011;2906;53.282;9.508;2022-07-10T01:33:01;4.28;;;0.70;;
5762;SDS011;2906;53.282;9.508;2022-07-10T01:34:04;2.28;;;0.45;;
5762;SDS011;2906;53.282;9.508;2022-07-10T01:35:06;2.83;;;0.68;;
5762;SDS011;2906;53.282;9.508;2022-07-10T01:36:09;4.25;;;0.80;;
5762;SDS011;2906;53.282;9.508;2022-07-10T01:37:11;5.45;;;1.05;;
5762;SDS011;2906;53.282;9.508;2022-07-10T01:38:13;6.45;;;0.68;;
5762;SDS011;2906;53.282;9.508;2022-07-10T01:39:15;3.80;;;1.30;;
5762;SDS011;2906;53.282;9.508;2022-07-10T01:40:17;5.40;;;0.85;;
5762;SDS011;2906;53.282;9.508;2022-07-10T01:41:18;4.57;;;0.68;;
5762;SDS011;2906;53.282;9.508;2022-07-10T01:42:21;4.43;;;1.10;;
5762;SDS011;2906;53.282;9.508;2022-07-10T01:43:22;2.08;;;0.70;;
5762;SDS011;2906;53.282;9.508;2022-07-10T01:44:24;4.55;;;0.98;;
5762;SDS011;2906;53.282;9.508;2022-07-10T01:45:26;6.97;;;0.85;;
5762;SDS011;2906;53.282;9.508;2022-07-10T01:46:28;3.95;;;0.73;;
5762;SDS011;2906;53.282;9.508;2022-07-10T01:47:30;3.67;;;0.75;;
5762;SDS011;2906;53.282;9.508;2022-07-10T01:48:32;3.20;;;0.70;;
5762;SDS011;2906;53.282;9.508;2022-07-10T01:49:34;1.60;;;0.50;;
5762;SDS011;2906;53.282;9.508;2022-07-10T01:50:37;8.35;;;1.08;;
5762;SDS011;2906;53.282;9.508;2022-07-10T01:51:39;4.63;;;0.80;;
5762;SDS011;2906;53.282;9.508;2022-07-10T01:52:43;9.50;;;0.70;;
5762;SDS011;2906;53.282;9.508;2022-07-10T01:53:44;16.95;;;0.93;;
5762;SDS011;2906;53.282;9.508;2022-07-10T01:54:47;7.40;;;0.65;;
5762;SDS011;2906;53.282;9.508;2022-07-10T01:55:48;7.10;;;0.95;;
5762;SDS011;2906;53.282;9.508;2022-07-10T01:56:51;6.82;;;0.90;;
5762;SDS011;2906;53.282;9.508;2022-07-10T01:57:53;4.30;;;1.05;;
5762;SDS011;2906;53.282;9.508;2022-07-10T01:58:55;4.20;;;1.00;;
5762;SDS011;2906;53.282;9.508;2022-07-10T01:59:57;6.43;;;0.80;;
5762;SDS011;2906;53.282;9.508;2022-07-10T02:00:59;5.25;;;0.85;;
5762;SDS011;2906;53.282;9.508;2022-07-10T02:02:00;3.97;;;0.70;;
5762;SDS011;2906;53.282;9.508;2022-07-10T02:03:03;6.78;;;1.13;;
5762;SDS011;2906;53.282;9.508;2022-07-10T02:04:19;7.28;;;0.90;;
5762;SDS011;2906;53.282;9.508;2022-07-10T02:05:35;4.47;;;0.90;;
5762;SDS011;2906;53.282;9.508;2022-07-10T02:06:37;5.38;;;0.70;;
5762;SDS011;2906;53.282;9.508;2022-07-10T02:07:39;4.90;;;0.60;;
5762;SDS011;2906;53.282;9.508;2022-07-10T02:08:42;5.63;;;1.02;;
5762;SDS011;2906;53.282;9.508;2022-07-10T02:09:45;3.17;;;0.50;;
5762;SDS011;2906;53.282;9.508;2022-07-10T02:10:46;8.55;;;1.05;;
5762;SDS011;2906;53.282;9.508;2022-07-10T02:11:49;9.63;;;1.17;;
5762;SDS011;2906;53.282;9.508;2022-07-10T02:12:50;2.95;;;0.75;;
5762;SDS011;2906;53.282;9.508;2022-07-10T02:13:53;3.85;;;0.95;;
5762;SDS011;2906;53.282;9.508;2022-07-10T02:14:54;4.30;;;0.90;;
5762;SDS011;2906;53.282;9.508;2022-07-10T02:15:59;6.88;;;0.95;;
5762;SDS011;2906;53.282;9.508;2022-07-10T02:17:01;4.45;;;0.95;;
5762;SDS011;2906;53.282;9.508;2022-07-10T02:18:03;4.28;;;0.80;;
5762;SDS011;2906;53.282;9.508;2022-07-10T02:19:04;5.50;;;0.82;;
5762;SDS011;2906;53.282;9.508;2022-07-10T02:20:07;3.75;;;0.88;;
5762;SDS011;2906;53.282;9.508;2022-07-10T02:21:11;2.97;;;0.57;;
5762;SDS011;2906;53.282;9.508;2022-07-10T02:22:13;6.07;;;1.20;;
5762;SDS011;2906;53.282;9.508;2022-07-10T02:23:14;4.97;;;0.57;;
5762;SDS011;2906;53.282;9.508;2022-07-10T02:24:18;4.53;;;0.77;;
5762;SDS011;2906;53.282;9.508;2022-07-10T02:25:20;7.55;;;0.95;;
5762;SDS011;2906;53.282;9.508;2022-07-10T02:26:21;10.90;;;1.40;;
5762;SDS011;2906;53.282;9.508;2022-07-10T02:27:24;5.25;;;1.30;;
5762;SDS011;2906;53.282;9.508;2022-07-10T02:28:25;3.22;;;0.60;;
5762;SDS011;2906;53.282;9.508;2022-07-10T02:29:27;8.30;;;1.17;;
5762;SDS011;2906;53.282;9.508;2022-07-10T02:30:29;6.10;;;1.00;;
5762;SDS011;2906;53.282;9.508;2022-07-10T02:31:31;7.60;;;0.70;;
5762;SDS011;2906;53.282;9.508;2022-07-10T02:32:34;11.27;;;1.75;;
5762;SDS011;2906;53.282;9.508;2022-07-10T02:33:36;12.73;;;1.25;;
5762;SDS011;2906;53.282;9.508;2022-07-10T02:34:38;4.22;;;1.15;;
5762;SDS011;2906;53.282;9.508;2022-07-10T02:35:40;6.80;;;0.95;;
5762;SDS011;2906;53.282;9.508;2022-07-10T02:36:41;7.35;;;0.80;;
5762;SDS011;2906;53.282;9.508;2022-07-10T02:37:44;2.58;;;0.85;;
5762;SDS011;2906;53.282;9.508;2022-07-10T02:38:45;5.40;;;0.90;;
5762;SDS011;2906;53.282;9.508;2022-07-10T02:39:49;5.10;;;0.95;;
5762;SDS011;2906;53.282;9.508;2022-07-10T02:40:50;9.23;;;1.17;;
5762;SDS011;2906;53.282;9.508;2022-07-10T02:41:52;4.65;;;1.27;;
5762;SDS011;2906;53.282;9.508;2022-07-10T02:42:53;7.40;;;1.10;;
5762;SDS011;2906;53.282;9.508;2022-07-10T02:43:56;4.07;;;1.55;;
5762;SDS011;2906;53.282;9.508;2022-07-10T02:44:57;6.72;;;0.93;;
5762;SDS011;2906;53.282;9.508;2022-07-10T02:46:00;7.40;;;1.27;;
5762;SDS011;2906;53.282;9.508;2022-07-10T02:47:02;4.10;;;0.80;;
5762;SDS011;2906;53.282;9.508;2022-07-10T02:48:04;4.22;;;0.80;;
5762;SDS011;2906;53.282;9.508;2022-07-10T02:49:06;4.05;;;0.70;;
5762;SDS011;2906;53.282;9.508;2022-07-10T02:50:08;4.43;;;0.82;;
5762;SDS011;2906;53.282;9.508;2022-07-10T02:51:10;6.43;;;1.20;;
5762;SDS011;2906;53.282;9.508;2022-07-10T02:52:12;7.78;;;1.10;;
5762;SDS011;2906;53.282;9.508;2022-07-10T02:53:13;6.47;;;0.73;;
5762;SDS011;2906;53.282;9.508;2022-07-10T02:54:16;5.25;;;0.90;;
5762;SDS011;2906;53.282;9.508;2022-07-10T02:55:18;5.43;;;0.82;;
5762;SDS011;2906;53.282;9.508;2022-07-10T02:56:20;4.05;;;0.70;;
5762;SDS011;2906;53.282;9.508;2022-07-10T02:57:22;3.75;;;0.90;;
5762;SDS011;2906;53.282;9.508;2022-07-10T02:58:24;7.07;;;0.80;;
5762;SDS011;2906;53.282;9.508;2022-07-10T02:59:26;5.20;;;1.10;;
5762;SDS011;2906;53.282;9.508;2022-07-10T03:00:28;4.45;;;0.80;;
5762;SDS011;2906;53.282;9.508;2022-07-10T03:01:29;3.45;;;0.70;;
5762;SDS011;2906;53.282;9.508;2022-07-10T03:02:32;6.22;;;1.00;;
5762;SDS011;2906;53.282;9.508;2022-07-10T03:03:33;9.57;;;1.38;;
5762;SDS011;2906;53.282;9.508;2022-07-10T03:04:35;13.48;;;1.23;;
5762;SDS011;2906;53.282;9.508;2022-07-10T03:05:37;4.32;;;1.13;;
5762;SDS011;2906;53.282;9.508;2022-07-10T03:06:39;3.47;;;0.82;;
5762;SDS011;2906;53.282;9.508;2022-07-10T03:07:41;6.15;;;0.90;;
5762;SDS011;2906;53.282;9.508;2022-07-10T03:08:43;8.20;;;1.05;;
5762;SDS011;2906;53.282;9.508;2022-07-10T03:09:44;4.70;;;1.08;;
5762;SDS011;2906;53.282;9.508;2022-07-10T03:10:48;6.20;;;1.20;;
5762;SDS011;2906;53.282;9.508;2022-07-10T03:11:49;7.20;;;1.85;;
5762;SDS011;2906;53.282;9.508;2022-07-10T03:12:51;4.75;;;1.10;;
5762;SDS011;2906;53.282;9.508;2022-07-10T03:13:53;6.90;;;1.23;;
5762;SDS011;2906;53.282;9.508;2022-07-10T03:14:55;3.65;;;0.70;;
5762;SDS011;2906;53.282;9.508;2022-07-10T03:15:56;7.93;;;1.23;;
5762;SDS011;2906;53.282;9.508;2022-07-10T03:16:58;6.75;;;1.10;;
5762;SDS011;2906;53.282;9.508;2022-07-10T03:18:00;6.75;;;1.38;;
5762;SDS011;2906;53.282;9.508;2022-07-10T03:19:02;9.30;;;1.00;;
5762;SDS011;2906;53.282;9.508;2022-07-10T03:20:04;7.40;;;1.35;;
5762;SDS011;2906;53.282;9.508;2022-07-10T03:21:06;6.35;;;1.30;;
5762;SDS011;2906;53.282;9.508;2022-07-10T03:22:07;9.15;;;1.23;;
5762;SDS011;2906;53.282;9.508;2022-07-10T03:23:10;5.40;;;1.20;;
5762;SDS011;2906;53.282;9.508;2022-07-10T03:24:11;4.10;;;1.00;;
5762;SDS011;2906;53.282;9.508;2022-07-10T03:25:13;15.73;;;1.50;;
5762;SDS011;2906;53.282;9.508;2022-07-10T03:26:16;6.65;;;1.27;;
5762;SDS011;2906;53.282;9.508;2022-07-10T03:27:18;6.72;;;1.13;;
5762;SDS011;2906;53.282;9.508;2022-07-10T03:28:19;6.57;;;1.10;;
5762;SDS011;2906;53.282;9.508;2022-07-10T03:29:22;6.20;;;1.27;;
5762;SDS011;2906;53.282;9.508;2022-07-10T03:30:23;10.88;;;1.45;;
5762;SDS011;2906;53.282;9.508;2022-07-10T03:31:25;8.15;;;1.42;;
5762;SDS011;2906;53.282;9.508;2022-07-10T03:32:27;9.55;;;1.58;;
5762;SDS011;2906;53.282;9.508;2022-07-10T03:33:29;10.23;;;1.10;;
5762;SDS011;2906;53.282;9.508;2022-07-10T03:34:30;8.90;;;1.20;;
5762;SDS011;2906;53.282;9.508;2022-07-10T03:35:34;5.97;;;1.13;;
5762;SDS011;2906;53.282;9.508;2022-07-10T03:36:35;12.32;;;1.50;;
5762;SDS011;2906;53.282;9.508;2022-07-10T03:37:37;7.18;;;1.08;;
5762;SDS011;2906;53.282;9.508;2022-07-10T03:38:38;8.48;;;1.08;;
5762;SDS011;2906;53.282;9.508;2022-07-10T03:39:41;6.78;;;1.30;;
5762;SDS011;2906;53.282;9.508;2022-07-10T03:40:42;9.18;;;1.10;;
5762;SDS011;2906;53.282;9.508;2022-07-10T03:41:48;12.23;;;1.85;;
5762;SDS011;2906;53.282;9.508;2022-07-10T03:42:50;7.03;;;1.30;;
5762;SDS011;2906;53.282;9.508;2022-07-10T03:43:52;9.88;;;1.35;;
5762;SDS011;2906;53.282;9.508;2022-07-10T03:44:53;6.35;;;1.30;;
5762;SDS011;2906;53.282;9.508;2022-07-10T03:45:56;10.88;;;1.50;;
5762;SDS011;2906;53.282;9.508;2022-07-10T03:46:57;10.70;;;1.73;;
5762;SDS011;2906;53.282;9.508;2022-07-10T03:48:00;7.07;;;1.40;;
5762;SDS011;2906;53.282;9.508;2022-07-10T03:49:02;9.18;;;1.90;;
5762;SDS011;2906;53.282;9.508;2022-07-10T03:50:04;6.43;;;1.20;;
5762;SDS011;2906;53.282;9.508;2022-07-10T03:51:06;5.20;;;1.38;;
5762;SDS011;2906;53.282;9.508;2022-07-10T03:52:07;9.95;;;1.48;;
5762;SDS011;2906;53.282;9.508;2022-07-10T03:53:09;20.15;;;2.22;;
5762;SDS011;2906;53.282;9.508;2022-07-10T03:54:11;6.88;;;1.30;;
5762;SDS011;2906;53.282;9.508;2022-07-10T03:55:13;8.57;;;1.30;;
5762;SDS011;2906;53.282;9.508;2022-07-10T03:56:14;9.10;;;1.67;;
5762;SDS011;2906;53.282;9.508;2022-07-10T03:57:32;4.50;;;1.38;;
5762;SDS011;2906;53.282;9.508;2022-07-10T03:58:48;11.55;;;1.90;;
5762;SDS011;2906;53.282;9.508;2022-07-10T03:59:50;10.05;;;1.42;;
5762;SDS011;2906;53.282;9.508;2022-07-10T04:00:52;9.45;;;1.65;;
5762;SDS011;2906;53.282;9.508;2022-07-10T04:01:54;10.50;;;1.30;;
5762;SDS011;2906;53.282;9.508;2022-07-10T04:02:56;9.80;;;1.02;;
5762;SDS011;2906;53.282;9.508;2022-07-10T04:03:58;11.00;;;1.48;;
5762;SDS011;2906;53.282;9.508;2022-07-10T04:04:59;8.98;;;1.63;;
5762;SDS011;2906;53.282;9.508;2022-07-10T04:06:02;6.60;;;1.42;;
5762;SDS011;2906;53.282;9.508;2022-07-10T04:07:03;8.38;;;1.67;;
5762;SDS011;2906;53.282;9.508;2022-07-10T04:08:06;7.72;;;1.63;;
5762;SDS011;2906;53.282;9.508;2022-07-10T04:09:09;7.75;;;1.60;;
5762;SDS011;2906;53.282;9.508;2022-07-10T04:10:11;12.95;;;1.90;;
5762;SDS011;2906;53.282;9.508;2022-07-10T04:11:12;7.82;;;1.42;;
5762;SDS011;2906;53.282;9.508;2022-07-10T04:12:14;6.43;;;1.15;;
5762;SDS011;2906;53.282;9.508;2022-07-10T04:13:17;7.25;;;1.65;;
5762;SDS011;2906;53.282;9.508;2022-07-10T04:14:19;18.08;;;2.10;;
5762;SDS011;2906;53.282;9.508;2022-07-10T04:15:21;10.88;;;1.45;;
5762;SDS011;2906;53.282;9.508;2022-07-10T04:16:23;10.07;;;1.35;;
5762;SDS011;2906;53.282;9.508;2022-07-10T04:17:24;8.88;;;1.95;;
5762;SDS011;2906;53.282;9.508;2022-07-10T04:18:26;14.13;;;1.83;;
5762;SDS011;2906;53.282;9.508;2022-07-10T04:19:28;10.55;;;1.20;;
5762;SDS011;2906;53.282;9.508;2022-07-10T04:20:30;9.73;;;1.65;;
5762;SDS011;2906;53.282;9.508;2022-07-10T04:21:31;10.25;;;1.20;;
5762;SDS011;2906;53.282;9.508;2022-07-10T04:22:34;10.18;;;1.55;;
5762;SDS011;2906;53.282;9.508;2022-07-10T04:23:35;10.27;;;1.70;;
5762;SDS011;2906;53.282;9.508;2022-07-10T04:24:37;8.95;;;2.38;;
5762;SDS011;2906;53.282;9.508;2022-07-10T04:25:38;7.47;;;1.60;;
5762;SDS011;2906;53.282;9.508;2022-07-10T04:26:41;9.20;;;1.75;;
5762;SDS011;2906;53.282;9.508;2022-07-10T04:27:42;6.57;;;2.08;;
5762;SDS011;2906;53.282;9.508;2022-07-10T04:28:46;14.05;;;2.55;;
5762;SDS011;2906;53.282;9.508;2022-07-10T04:29:47;12.73;;;2.47;;
5762;SDS011;2906;53.282;9.508;2022-07-10T04:30:50;8.23;;;1.48;;
5762;SDS011;2906;53.282;9.508;2022-07-10T04:31:51;6.40;;;1.50;;
5762;SDS011;2906;53.282;9.508;2022-07-10T04:32:54;8.93;;;2.17;;
5762;SDS011;2906;53.282;9.508;2022-07-10T04:33:55;10.00;;;1.52;;
5762;SDS011;2906;53.282;9.508;2022-07-10T04:34:58;16.40;;;1.90;;
5762;SDS011;2906;53.282;9.508;2022-07-10T04:36:01;9.32;;;1.75;;
5762;SDS011;2906;53.282;9.508;2022-07-10T04:37:03;9.95;;;1.88;;
5762;SDS011;2906;53.282;9.508;2022-07-10T04:38:05;14.65;;;2.25;;
5762;SDS011;2906;53.282;9.508;2022-07-10T04:39:07;11.98;;;1.98;;
5762;SDS011;2906;53.282;9.508;2022-07-10T04:40:09;13.00;;;2.05;;
5762;SDS011;2906;53.282;9.508;2022-07-10T04:41:11;6.47;;;1.45;;
5762;SDS011;2906;53.282;9.508;2022-07-10T04:42:12;7.50;;;1.70;;
5762;SDS011;2906;53.282;9.508;2022-07-10T04:43:15;10.73;;;1.48;;
5762;SDS011;2906;53.282;9.508;2022-07-10T04:44:17;15.55;;;2.00;;
5762;SDS011;2906;53.282;9.508;2022-07-10T04:45:19;7.75;;;1.50;;
5762;SDS011;2906;53.282;9.508;2022-07-10T04:46:21;9.48;;;1.90;;
5762;SDS011;2906;53.282;9.508;2022-07-10T04:47:23;13.15;;;2.30;;
5762;SDS011;2906;53.282;9.508;2022-07-10T04:48:24;12.07;;;1.63;;
5762;SDS011;2906;53.282;9.508;2022-07-10T04:49:27;13.02;;;2.00;;
5762;SDS011;2906;53.282;9.508;2022-07-10T04:50:28;7.85;;;1.50;;
5762;SDS011;2906;53.282;9.508;2022-07-10T04:51:31;12.88;;;1.50;;
5762;SDS011;2906;53.282;9.508;2022-07-10T04:52:32;16.20;;;1.85;;
5762;SDS011;2906;53.282;9.508;2022-07-10T04:53:34;8.13;;;2.10;;
5762;SDS011;2906;53.282;9.508;2022-07-10T04:54:36;12.98;;;1.85;;
5762;SDS011;2906;53.282;9.508;2022-07-10T04:55:38;18.08;;;1.90;;
5762;SDS011;2906;53.282;9.508;2022-07-10T04:56:39;14.52;;;2.10;;
5762;SDS011;2906;53.282;9.508;2022-07-10T04:57:42;14.70;;;2.10;;
5762;SDS011;2906;53.282;9.508;2022-07-10T04:58:44;14.82;;;2.80;;
5762;SDS011;2906;53.282;9.508;2022-07-10T04:59:48;13.25;;;1.95;;
5762;SDS011;2906;53.282;9.508;2022-07-10T05:00:49;12.45;;;2.10;;
5762;SDS011;2906;53.282;9.508;2022-07-10T05:01:52;19.63;;;2.10;;
5762;SDS011;2906;53.282;9.508;2022-07-10T05:02:54;9.68;;;1.58;;
5762;SDS011;2906;53.282;9.508;2022-07-10T05:03:55;13.10;;;2.40;;
5762;SDS011;2906;53.282;9.508;2022-07-10T05:04:58;15.68;;;2.10;;
5762;SDS011;2906;53.282;9.508;2022-07-10T05:05:59;16.10;;;1.92;;
5762;SDS011;2906;53.282;9.508;2022-07-10T05:07:01;6.55;;;1.60;;
5762;SDS011;2906;53.282;9.508;2022-07-10T05:08:03;17.45;;;2.35;;
5762;SDS011;2906;53.282;9.508;2022-07-10T05:09:05;6.97;;;1.42;;
5762;SDS011;2906;53.282;9.508;2022-07-10T05:10:07;12.32;;;2.03;;
5762;SDS011;2906;53.282;9.508;2022-07-10T05:11:09;15.57;;;2.00;;
5762;SDS011;2906;53.282;9.508;2022-07-10T05:12:11;15.95;;;2.90;;
5762;SDS011;2906;53.282;9.508;2022-07-10T05:13:13;13.55;;;1.90;;
5762;SDS011;2906;53.282;9.508;2022-07-10T05:14:14;10.45;;;1.73;;
5762;SDS011;2906;53.282;9.508;2022-07-10T05:15:18;19.02;;;2.53;;
5762;SDS011;2906;53.282;9.508;2022-07-10T05:16:20;13.15;;;2.20;;
5762;SDS011;2906;53.282;9.508;2022-07-10T05:17:22;14.45;;;1.73;;
5762;SDS011;2906;53.282;9.508;2022-07-10T05:18:23;11.70;;;2.13;;
5762;SDS011;2906;53.282;9.508;2022-07-10T05:19:26;14.25;;;1.65;;
5762;SDS011;2906;53.282;9.508;2022-07-10T05:20:27;15.38;;;1.90;;
5762;SDS011;2906;53.282;9.508;2022-07-10T05:21:29;16.13;;;1.90;;
5762;SDS011;2906;53.282;9.508;2022-07-10T05:22:31;9.40;;;1.85;;
5762;SDS011;2906;53.282;9.508;2022-07-10T05:23:33;14.98;;;2.28;;
5762;SDS011;2906;53.282;9.508;2022-07-10T05:24:35;12.45;;;1.80;;
5762;SDS011;2906;53.282;9.508;2022-07-10T05:25:37;26.40;;;2.28;;
5762;SDS011;2906;53.282;9.508;2022-07-10T05:26:39;13.25;;;2.05;;
5762;SDS011;2906;53.282;9.508;2022-07-10T05:27:41;9.93;;;2.08;;
5762;SDS011;2906;53.282;9.508;2022-07-10T05:28:43;19.88;;;2.17;;
5762;SDS011;2906;53.282;9.508;2022-07-10T05:29:45;12.38;;;1.58;;
5762;SDS011;2906;53.282;9.508;2022-07-10T05:30:48;10.88;;;2.55;;
5762;SDS011;2906;53.282;9.508;2022-07-10T05:31:50;12.20;;;1.70;;
5762;SDS011;2906;53.282;9.508;2022-07-10T05:32:51;21.92;;;2.00;;
5762;SDS011;2906;53.282;9.508;2022-07-10T05:33:53;12.13;;;2.53;;
5762;SDS011;2906;53.282;9.508;2022-07-10T05:34:56;8.80;;;1.60;;
5762;SDS011;2906;53.282;9.508;2022-07-10T05:35:59;10.43;;;2.13;;
5762;SDS011;2906;53.282;9.508;2022-07-10T05:37:01;11.02;;;2.20;;
5762;SDS011;2906;53.282;9.508;2022-07-10T05:38:03;9.40;;;2.20;;
5762;SDS011;2906;53.282;9.508;2022-07-10T05:39:04;14.85;;;1.60;;
5762;SDS011;2906;53.282;9.508;2022-07-10T05:40:07;10.13;;;1.83;;
5762;SDS011;2906;53.282;9.508;2022-07-10T05:41:08;11.05;;;1.67;;
5762;SDS011;2906;53.282;9.508;2022-07-10T05:42:11;14.25;;;2.55;;
5762;SDS011;2906;53.282;9.508;2022-07-10T05:43:12;17.45;;;2.10;;
5762;SDS011;2906;53.282;9.508;2022-07-10T05:44:14;15.75;;;1.92;;
5762;SDS011;2906;53.282;9.508;2022-07-10T05:45:19;8.52;;;1.92;;
5762;SDS011;2906;53.282;9.508;2022-07-10T05:46:23;14.77;;;2.25;;
5762;SDS011;2906;53.282;9.508;2022-07-10T05:47:24;13.57;;;1.67;;
5762;SDS011;2906;53.282;9.508;2022-07-10T05:48:26;9.45;;;2.42;;
5762;SDS011;2906;53.282;9.508;2022-07-10T05:49:28;9.23;;;1.45;;
5762;SDS011;2906;53.282;9.508;2022-07-10T05:50:32;12.30;;;2.22;;
5762;SDS011;2906;53.282;9.508;2022-07-10T05:51:33;11.73;;;2.15;;
5762;SDS011;2906;53.282;9.508;2022-07-10T05:52:35;10.05;;;2.95;;
5762;SDS011;2906;53.282;9.508;2022-07-10T05:53:37;5.95;;;1.40;;
5762;SDS011;2906;53.282;9.508;2022-07-10T05:54:39;17.25;;;3.15;;
5762;SDS011;2906;53.282;9.508;2022-07-10T05:55:41;10.90;;;1.83;;
5762;SDS011;2906;53.282;9.508;2022-07-10T05:56:43;9.75;;;1.95;;
5762;SDS011;2906;53.282;9.508;2022-07-10T05:57:45;9.35;;;1.90;;
5762;SDS011;2906;53.282;9.508;2022-07-10T05:58:47;14.55;;;1.92;;
5762;SDS011;2906;53.282;9.508;2022-07-10T05:59:49;18.05;;;1.92;;
5762;SDS011;2906;53.282;9.508;2022-07-10T06:00:52;7.97;;;1.90;;
5762;SDS011;2906;53.282;9.508;2022-07-10T06:01:55;9.40;;;1.98;;
5762;SDS011;2906;53.282;9.508;2022-07-10T06:02:57;8.35;;;1.65;;
5762;SDS011;2906;53.282;9.508;2022-07-10T06:03:58;9.75;;;1.75;;
5762;SDS011;2906;53.282;9.508;2022-07-10T06:05:01;14.50;;;2.20;;
5762;SDS011;2906;53.282;9.508;2022-07-10T06:06:02;12.52;;;2.10;;
5762;SDS011;2906;53.282;9.508;2022-07-10T06:07:05;13.02;;;2.05;;
5762;SDS011;2906;53.282;9.508;2022-07-10T06:08:06;12.13;;;2.20;;
5762;SDS011;2906;53.282;9.508;2022-07-10T06:09:09;9.40;;;2.25;;
5762;SDS011;2906;53.282;9.508;2022-07-10T06:10:10;11.35;;;2.10;;
5762;SDS011;2906;53.282;9.508;2022-07-10T06:11:13;7.53;;;1.60;;
5762;SDS011;2906;53.282;9.508;2022-07-10T06:12:16;12.13;;;2.08;;
5762;SDS011;2906;53.282;9.508;2022-07-10T06:13:18;12.25;;;2.00;;
5762;SDS011;2906;53.282;9.508;2022-07-10T06:14:19;15.38;;;2.55;;
5762;SDS011;2906;53.282;9.508;2022-07-10T06:15:22;11.23;;;2.15;;
5762;SDS011;2906;53.282;9.508;2022-07-10T06:16:23;16.75;;;2.03;;
5762;SDS011;2906;53.282;9.508;2022-07-10T06:17:27;13.02;;;2.03;;
5762;SDS011;2906;53.282;9.508;2022-07-10T06:18:28;12.63;;;1.88;;
5762;SDS011;2906;53.282;9.508;2022-07-10T06:19:31;19.65;;;2.13;;
5762;SDS011;2906;53.282;9.508;2022-07-10T06:20:32;20.65;;;2.20;;
5762;SDS011;2906;53.282;9.508;2022-07-10T06:21:34;14.90;;;1.65;;
5762;SDS011;2906;53.282;9.508;2022-07-10T06:22:37;10.10;;;1.70;;
5762;SDS011;2906;53.282;9.508;2022-07-10T06:23:40;11.35;;;1.77;;
5762;SDS011;2906;53.282;9.508;2022-07-10T06:24:42;18.05;;;1.65;;